Главная страница
METAR-TAF:

METAR-TAF

Аэропорты :

Центральная вертолётная станция Манхэттена

Нью-Йорк, Нью-Йорк, США

широта: 40-42-04N, долгота: 074-00-32W, высота над уровнем моря: 2 м

Текущие метеонаблюдения

Эта сводка был подготовлена 38 минут назад, в 11:56 UTC
Ветер 3 Узел переменных направлений
Температура 5°C
Влажность 56%
Давление 1029 hPa
Видимость: 16.1 км
Рассеянная облачность на высоте 10000 фута

METAR: KJRB 181156Z AUTO VRB03KT 10SM BKN100 05/M03 A3038 RMK AO2 SLP288 70001 T00501028 10067 20050 53015

Время: 07:34 (12:34 UTC)


TAF: отсутствует

Метеонаблюдения и прогнозы для более 4000 аэропортов (сводки METAR и TAF).

Имеющиеся станции представлены на карте желтыми и красными точками.

Чтобы увидеть название станции, наведите на нее мышь.

Затем щелкните, чтобы увидеть метеонаблюдения и метеопрогнозы.

Управление картой: чтобы увеличить масштаб, щелкните зеленые кнопки с черным крестиком; чтобы уменьшить масштаб, щелкните зеленую кнопку с тире; для просмотра соседних карт щелкайте зеленые стрелки.


METAR-TAF: